createdAt,value
2022-12-04T00:01:16.326Z,20.30
2022-12-04T00:02:50.976Z,19.70
2022-12-04T00:04:24.241Z,21.08
2022-12-04T00:06:04.304Z,21.52
2022-12-04T00:07:38.513Z,19.42
2022-12-04T00:09:12.447Z,21.52
2022-12-04T00:10:47.820Z,22.63
2022-12-04T00:12:21.829Z,22.23
2022-12-04T00:14:02.969Z,23.05
2022-12-04T00:15:44.048Z,26.70
2022-12-04T00:17:17.214Z,20.95
2022-12-04T00:18:53.053Z,23.48
2022-12-04T00:20:27.954Z,17.70
2022-12-04T00:22:02.166Z,18.08
2022-12-04T00:23:35.138Z,14.80
2022-12-04T00:25:09.589Z,20.45
2022-12-04T00:26:42.887Z,15.15
2022-12-04T00:28:17.927Z,16.50
2022-12-04T00:29:51.380Z,16.23
2022-12-04T00:31:27.785Z,13.77
2022-12-04T00:33:01.155Z,23.90
2022-12-04T00:34:35.937Z,21.38
2022-12-04T00:36:11.888Z,20.58
2022-12-04T00:37:45.223Z,15.23
2022-12-04T00:39:18.847Z,19.10
2022-12-04T00:40:51.419Z,14.90
2022-12-04T00:42:24.943Z,19.35
2022-12-04T00:43:59.538Z,12.45
2022-12-04T00:45:32.774Z,16.13
2022-12-04T00:47:06.626Z,21.33
2022-12-04T00:48:40.110Z,13.38
2022-12-04T00:50:15.054Z,16.45
2022-12-04T00:51:47.683Z,15.20
2022-12-04T00:53:21.594Z,14.45
2022-12-04T00:54:55.023Z,14.93
2022-12-04T00:56:30.535Z,18.42
2022-12-04T00:58:03.748Z,22.23
2022-12-04T00:59:38.543Z,22.95
2022-12-04T01:01:14.723Z,22.27
2022-12-04T01:02:48.445Z,25.27
2022-12-04T01:04:21.794Z,21.50
2022-12-04T01:05:55.390Z,16.98
2022-12-04T01:07:29.420Z,18.50
2022-12-04T01:09:05.816Z,15.05
2022-12-04T01:10:38.478Z,16.08
2022-12-04T01:12:16.167Z,17.05
2022-12-04T01:13:52.500Z,16.95
2022-12-04T01:15:26.034Z,12.77
2022-12-04T01:16:59.670Z,14.15
2022-12-04T01:18:31.992Z,18.48
2022-12-04T01:20:06.266Z,15.18
2022-12-04T01:21:41.540Z,13.02
2022-12-04T01:23:15.201Z,14.15
2022-12-04T01:24:48.494Z,12.10
2022-12-04T01:26:21.806Z,9.82
2022-12-04T01:27:55.823Z,10.00
2022-12-04T01:29:29.085Z,11.30
2022-12-04T01:31:04.427Z,9.93
2022-12-04T01:32:38.005Z,8.98
2022-12-04T01:34:11.734Z,10.38
2022-12-04T01:35:53.819Z,11.48
2022-12-04T01:37:31.401Z,16.23
2022-12-04T01:39:05.491Z,11.52
2022-12-04T01:40:44.349Z,11.23
2022-12-04T01:42:18.276Z,9.68
2022-12-04T01:44:15.391Z,9.90
2022-12-04T01:45:49.985Z,6.88
2022-12-04T01:47:23.259Z,8.10
2022-12-04T01:48:56.476Z,9.75
2022-12-04T01:50:30.320Z,11.18
2022-12-04T01:52:08.832Z,10.57
2022-12-04T01:53:45.971Z,8.07
2022-12-04T01:55:20.134Z,8.77
2022-12-04T01:56:56.371Z,10.20
2022-12-04T01:58:34.267Z,9.68
2022-12-04T02:00:12.291Z,10.18
2022-12-04T02:01:52.824Z,11.23
2022-12-04T02:03:26.149Z,11.55
2022-12-04T02:05:01.437Z,11.32
2022-12-04T02:06:33.679Z,10.20
2022-12-04T02:08:06.995Z,11.75
2022-12-04T02:09:43.402Z,14.75
2022-12-04T02:11:28.476Z,11.68
2022-12-04T02:13:09.172Z,12.52
2022-12-04T02:14:51.047Z,10.80
2022-12-04T02:16:31.389Z,11.30
2022-12-04T02:18:11.026Z,10.80
2022-12-04T02:20:14.053Z,11.48
2022-12-04T02:21:52.855Z,13.55
2022-12-04T02:23:49.018Z,10.63
2022-12-04T02:25:33.312Z,13.05
2022-12-04T02:27:11.464Z,12.82
2022-12-04T02:28:52.922Z,13.00
2022-12-04T02:30:30.605Z,14.20
2022-12-04T02:32:10.800Z,16.38
2022-12-04T02:33:48.461Z,13.40
2022-12-04T02:35:26.491Z,15.10
2022-12-04T02:37:04.872Z,12.38
2022-12-04T02:38:40.859Z,13.55
2022-12-04T02:40:22.161Z,12.55
2022-12-04T02:42:00.654Z,12.77
2022-12-04T02:43:39.525Z,14.10
2022-12-04T02:45:19.631Z,13.32
2022-12-04T02:46:57.608Z,12.93
2022-12-04T02:48:35.729Z,10.95
2022-12-04T02:50:13.278Z,10.40
2022-12-04T02:51:50.098Z,14.27
2022-12-04T02:53:29.322Z,16.38
2022-12-04T02:55:09.244Z,16.65
2022-12-04T02:56:45.218Z,17.13
2022-12-04T02:58:26.736Z,16.80
2022-12-04T03:00:01.638Z,14.52
2022-12-04T03:01:40.191Z,16.92
2022-12-04T03:03:19.564Z,18.23
2022-12-04T03:04:56.352Z,14.50
2022-12-04T03:06:33.362Z,19.10
2022-12-04T03:08:12.235Z,18.73
2022-12-04T03:09:49.639Z,17.60
2022-12-04T03:11:24.353Z,18.13
2022-12-04T03:13:02.781Z,14.40
2022-12-04T03:14:40.521Z,14.23
2022-12-04T03:16:17.624Z,15.68
2022-12-04T03:17:56.172Z,14.48
2022-12-04T03:19:36.230Z,17.05
2022-12-04T03:21:13.292Z,14.00
2022-12-04T03:22:52.426Z,17.23
2022-12-04T03:24:29.179Z,24.73
2022-12-04T03:26:07.323Z,22.52
2022-12-04T03:27:50.322Z,27.50
2022-12-04T03:29:27.359Z,25.42
2022-12-04T03:31:05.273Z,24.80
2022-12-04T03:32:44.790Z,25.90
2022-12-04T03:34:27.982Z,23.88
2022-12-04T03:36:08.071Z,19.70
2022-12-04T03:37:46.646Z,16.08
2022-12-04T03:39:24.484Z,18.52
2022-12-04T03:41:04.226Z,15.35
2022-12-04T03:42:43.243Z,16.52
2022-12-04T03:44:24.119Z,14.50
2022-12-04T03:46:01.059Z,15.95
2022-12-04T03:47:40.539Z,16.00
2022-12-04T03:49:20.747Z,12.27
2022-12-04T03:51:01.211Z,16.30
2022-12-04T03:52:42.942Z,11.25
2022-12-04T03:54:21.680Z,16.02
2022-12-04T03:56:01.937Z,13.18
2022-12-04T03:57:41.794Z,16.52
2022-12-04T03:59:22.239Z,17.27
2022-12-04T04:00:58.035Z,16.05
2022-12-04T04:02:36.371Z,15.15
2022-12-04T04:04:15.126Z,17.83
2022-12-04T04:05:53.745Z,16.98
2022-12-04T04:07:35.969Z,20.05
2022-12-04T04:09:15.606Z,17.42
2022-12-04T04:10:49.106Z,16.40
2022-12-04T04:12:27.869Z,12.30
2022-12-04T04:14:24.504Z,13.90
2022-12-04T04:16:16.669Z,14.95
2022-12-04T04:18:09.914Z,16.70
2022-12-04T04:20:03.327Z,14.77
2022-12-04T04:21:57.340Z,14.98
2022-12-04T04:23:54.111Z,13.93
2022-12-04T04:25:29.270Z,14.82
2022-12-04T04:27:05.082Z,13.15
2022-12-04T04:28:39.719Z,16.50
2022-12-04T04:30:13.312Z,12.15
2022-12-04T04:31:56.017Z,12.52
2022-12-04T04:33:32.474Z,14.38
2022-12-04T04:35:16.452Z,13.93
2022-12-04T04:36:57.038Z,17.23
2022-12-04T04:38:39.044Z,11.63
2022-12-04T04:40:20.161Z,14.93
2022-12-04T04:41:56.681Z,13.57
2022-12-04T04:43:37.204Z,13.32
2022-12-04T04:45:17.902Z,14.15
2022-12-04T04:46:55.489Z,11.10
2022-12-04T04:48:33.269Z,14.57
2022-12-04T04:50:09.975Z,8.88
2022-12-04T04:51:46.051Z,14.05
2022-12-04T04:53:22.987Z,11.40
2022-12-04T04:55:00.793Z,11.27
2022-12-04T04:56:40.832Z,10.63
2022-12-04T04:58:17.827Z,11.82
2022-12-04T04:59:50.035Z,11.70
2022-12-04T05:01:28.186Z,12.10
2022-12-04T05:03:01.753Z,11.10
2022-12-04T05:04:35.088Z,12.93
2022-12-04T05:06:09.272Z,12.35
2022-12-04T05:07:41.572Z,10.43
2022-12-04T05:09:15.611Z,12.77
2022-12-04T05:10:50.110Z,13.50
2022-12-04T05:12:23.348Z,14.70
2022-12-04T05:13:55.745Z,11.38
2022-12-04T05:15:29.619Z,13.13
2022-12-04T05:17:05.504Z,15.27
2022-12-04T05:19:02.571Z,10.95
2022-12-04T05:20:35.098Z,13.95
2022-12-04T05:22:08.284Z,12.93
2022-12-04T05:23:41.542Z,14.95
2022-12-04T05:25:14.844Z,15.38
2022-12-04T05:26:49.765Z,13.98
2022-12-04T05:28:24.349Z,19.38
2022-12-04T05:29:59.169Z,14.18
2022-12-04T05:31:31.705Z,13.65
2022-12-04T05:33:05.946Z,16.63
2022-12-04T05:34:39.312Z,19.63
2022-12-04T05:36:13.403Z,19.05
2022-12-04T05:37:46.623Z,24.65
2022-12-04T05:39:19.440Z,26.23
2022-12-04T05:40:52.890Z,24.50
2022-12-04T05:42:27.431Z,27.80
2022-12-04T05:43:59.973Z,11.73
2022-12-04T05:45:33.546Z,10.75
2022-12-04T05:47:07.113Z,12.90
2022-12-04T05:48:40.930Z,12.27
2022-12-04T05:50:15.389Z,12.65
2022-12-04T05:51:50.722Z,12.20
2022-12-04T05:53:23.017Z,12.65
2022-12-04T05:54:58.909Z,8.15
2022-12-04T05:56:32.324Z,7.63
2022-12-04T05:58:07.246Z,15.80
2022-12-04T05:59:40.748Z,13.30
2022-12-04T06:01:16.135Z,9.27
2022-12-04T06:02:49.323Z,11.00
2022-12-04T06:04:23.017Z,9.70
2022-12-04T06:05:56.766Z,5.95
2022-12-04T06:07:30.048Z,11.52
2022-12-04T06:09:03.960Z,10.20
2022-12-04T06:10:37.531Z,11.45
2022-12-04T06:12:12.028Z,8.75
2022-12-04T06:13:47.583Z,16.05
2022-12-04T06:15:19.794Z,17.52
2022-12-04T06:16:53.522Z,16.05
2022-12-04T06:18:26.756Z,13.63
2022-12-04T06:20:00.493Z,11.77
2022-12-04T06:21:36.299Z,7.78
2022-12-04T06:23:09.803Z,13.60
2022-12-04T06:24:43.024Z,10.07
2022-12-04T06:26:15.586Z,10.60
2022-12-04T06:27:48.813Z,12.75
2022-12-04T06:29:23.005Z,16.17
2022-12-04T06:30:56.547Z,21.30
2022-12-04T06:32:30.228Z,16.17
2022-12-04T06:34:04.242Z,17.95
2022-12-04T06:35:36.948Z,14.05
2022-12-04T06:37:10.169Z,13.43
2022-12-04T06:38:44.390Z,15.60
2022-12-04T06:40:17.704Z,8.80
2022-12-04T06:41:51.520Z,12.07
2022-12-04T06:43:24.473Z,14.85
2022-12-04T06:44:59.555Z,15.00
2022-12-04T06:46:34.345Z,10.77
2022-12-04T06:48:07.911Z,13.15
2022-12-04T06:49:42.343Z,10.13
2022-12-04T06:51:17.898Z,10.13
2022-12-04T06:52:51.132Z,12.45
2022-12-04T06:54:24.913Z,12.07
2022-12-04T06:55:59.199Z,10.32
2022-12-04T06:57:32.575Z,11.93
2022-12-04T06:59:05.139Z,8.75
2022-12-04T07:00:40.257Z,7.00
2022-12-04T07:02:13.902Z,7.57
2022-12-04T07:03:51.640Z,7.30
2022-12-04T07:05:25.203Z,7.15
2022-12-04T07:06:58.723Z,10.68
2022-12-04T07:08:31.963Z,14.18
2022-12-04T07:10:06.211Z,17.70
2022-12-04T07:11:40.397Z,13.55
2022-12-04T07:13:14.418Z,8.75
2022-12-04T07:14:48.230Z,13.90
2022-12-04T07:16:24.142Z,10.40
2022-12-04T07:17:58.298Z,12.15
2022-12-04T07:19:31.688Z,13.60
2022-12-04T07:21:07.594Z,14.73
2022-12-04T07:22:40.739Z,13.35
2022-12-04T07:24:18.243Z,8.45
2022-12-04T07:25:52.060Z,11.57
2022-12-04T07:27:25.741Z,11.55
2022-12-04T07:28:59.989Z,13.55
2022-12-04T07:30:35.521Z,18.67
2022-12-04T07:32:10.523Z,13.63
2022-12-04T07:33:45.391Z,17.48
2022-12-04T07:35:18.576Z,20.88
2022-12-04T07:36:51.810Z,13.45
2022-12-04T07:38:26.968Z,13.68
2022-12-04T07:40:00.203Z,9.35
2022-12-04T07:41:33.336Z,14.25
2022-12-04T07:43:12.522Z,10.77
2022-12-04T07:44:46.577Z,6.43
2022-12-04T07:46:21.865Z,8.63
2022-12-04T07:47:56.666Z,7.43
2022-12-04T07:49:30.022Z,4.88
2022-12-04T07:51:05.731Z,3.17
2022-12-04T07:52:39.178Z,5.22
2022-12-04T07:54:12.424Z,6.60
2022-12-04T07:55:46.029Z,8.98
2022-12-04T07:57:19.727Z,9.50
2022-12-04T07:58:52.972Z,7.50
2022-12-04T08:00:26.329Z,12.65
2022-12-04T08:01:59.608Z,7.57
2022-12-04T08:03:33.766Z,9.32
2022-12-04T08:05:07.622Z,10.02
2022-12-04T08:06:41.225Z,8.93
2022-12-04T08:08:14.343Z,7.75
2022-12-04T08:09:48.231Z,10.27
2022-12-04T08:11:23.364Z,6.60
2022-12-04T08:12:56.542Z,7.10
2022-12-04T08:14:31.266Z,10.40
2022-12-04T08:16:05.384Z,5.90
2022-12-04T08:17:42.007Z,8.18
2022-12-04T08:19:16.657Z,6.47
2022-12-04T08:20:49.795Z,9.23
2022-12-04T08:22:25.436Z,9.27
2022-12-04T08:24:00.117Z,8.32
2022-12-04T08:25:33.915Z,14.43
2022-12-04T08:27:07.140Z,12.90
2022-12-04T08:28:41.804Z,22.17
2022-12-04T08:30:15.504Z,11.07
2022-12-04T08:31:48.820Z,13.13
2022-12-04T08:33:22.759Z,9.95
2022-12-04T08:34:58.007Z,11.13
2022-12-04T08:36:31.496Z,5.88
2022-12-04T08:38:05.237Z,21.88
2022-12-04T08:39:38.494Z,18.10
2022-12-04T08:41:14.189Z,17.10
2022-12-04T08:42:47.951Z,16.52
2022-12-04T08:44:21.564Z,18.85
2022-12-04T08:45:59.715Z,18.35
2022-12-04T08:47:33.159Z,12.35
2022-12-04T08:49:06.862Z,8.73
2022-12-04T08:50:45.824Z,13.90
2022-12-04T08:52:19.014Z,16.35
2022-12-04T08:53:54.950Z,17.75
2022-12-04T08:55:29.010Z,16.13
2022-12-04T08:57:02.242Z,10.15
2022-12-04T08:58:38.327Z,10.38
2022-12-04T09:00:13.372Z,13.20
2022-12-04T09:01:47.001Z,11.88
2022-12-04T09:03:29.226Z,12.18
2022-12-04T09:05:04.018Z,12.50
2022-12-04T09:06:39.710Z,19.73
2022-12-04T09:08:13.664Z,14.68
2022-12-04T09:09:48.540Z,16.17
2022-12-04T09:11:23.845Z,24.85
2022-12-04T09:12:57.196Z,16.33
2022-12-04T09:14:30.824Z,9.52
2022-12-04T09:16:07.036Z,11.25
2022-12-04T09:17:40.336Z,8.52
2022-12-04T09:19:13.747Z,12.02
2022-12-04T09:20:47.746Z,13.65
2022-12-04T09:22:22.383Z,17.25
2022-12-04T09:23:55.551Z,11.02
2022-12-04T09:25:29.607Z,12.10
2022-12-04T09:27:02.985Z,12.32
2022-12-04T09:28:37.517Z,17.17
2022-12-04T09:30:13.882Z,13.25
2022-12-04T09:31:47.258Z,15.57
2022-12-04T09:33:23.413Z,19.02
2022-12-04T09:34:56.581Z,13.63
2022-12-04T09:36:30.591Z,12.40
2022-12-04T09:38:05.466Z,15.05
2022-12-04T09:39:39.061Z,21.13
2022-12-04T09:41:38.352Z,20.17
2022-12-04T09:43:23.587Z,18.45
2022-12-04T09:45:03.526Z,14.45
2022-12-04T09:46:39.594Z,16.75
2022-12-04T09:48:14.110Z,18.63
2022-12-04T09:49:52.341Z,22.38
2022-12-04T09:51:28.648Z,15.68
2022-12-04T09:53:08.916Z,17.45
2022-12-04T09:54:44.747Z,11.05
2022-12-04T09:56:22.863Z,19.27
2022-12-04T09:58:02.131Z,11.70
2022-12-04T09:59:35.717Z,14.82
2022-12-04T10:01:20.831Z,16.35
2022-12-04T10:02:59.115Z,8.98
2022-12-04T10:04:32.793Z,8.93
2022-12-04T10:06:14.515Z,12.00
2022-12-04T10:08:00.702Z,8.88
2022-12-04T10:09:43.987Z,10.30
2022-12-04T10:11:22.021Z,13.05
2022-12-04T10:13:02.835Z,12.02
2022-12-04T10:15:01.345Z,14.73
2022-12-04T10:16:47.199Z,13.43
2022-12-04T10:18:34.632Z,8.95
2022-12-04T10:20:23.585Z,12.93
2022-12-04T10:22:11.445Z,14.23
2022-12-04T10:23:55.317Z,9.38
2022-12-04T10:25:31.982Z,13.63
2022-12-04T10:27:13.210Z,14.82
2022-12-04T10:28:55.272Z,16.50
2022-12-04T10:30:32.260Z,14.57
2022-12-04T10:32:19.944Z,18.95
2022-12-04T10:33:56.760Z,19.45
2022-12-04T10:35:32.129Z,14.27
2022-12-04T10:37:13.955Z,11.70
2022-12-04T10:38:51.035Z,10.68
2022-12-04T10:40:29.471Z,11.02
2022-12-04T10:42:13.865Z,10.70
2022-12-04T10:43:49.749Z,10.95
2022-12-04T10:45:24.448Z,12.55
2022-12-04T10:47:00.748Z,13.98
2022-12-04T10:48:39.329Z,20.83
2022-12-04T10:50:17.335Z,12.70
2022-12-04T10:51:51.235Z,10.60
2022-12-04T10:53:31.233Z,17.50
2022-12-04T10:55:05.226Z,22.92
2022-12-04T10:56:38.417Z,24.58
2022-12-04T10:58:18.712Z,17.85
2022-12-04T10:59:53.183Z,20.88
2022-12-04T11:01:34.400Z,15.20
2022-12-04T11:03:24.125Z,16.50
2022-12-04T11:04:59.665Z,16.92
2022-12-04T11:06:33.567Z,17.27
2022-12-04T11:08:08.997Z,26.27
2022-12-04T11:09:50.851Z,70.60
2022-12-04T11:11:27.653Z,24.92
2022-12-04T11:13:03.694Z,15.20
2022-12-04T11:14:41.673Z,18.52
2022-12-04T11:16:34.946Z,23.35
2022-12-04T11:18:10.251Z,24.63
2022-12-04T11:19:43.568Z,19.52
2022-12-04T11:21:18.728Z,22.15
2022-12-04T11:22:54.048Z,17.33
2022-12-04T11:24:31.667Z,19.70
2022-12-04T11:26:06.576Z,14.70
2022-12-04T11:27:40.009Z,15.63
2022-12-04T11:29:15.591Z,21.20
2022-12-04T11:30:54.954Z,25.02
2022-12-04T11:32:31.900Z,23.67
2022-12-04T11:34:09.314Z,22.75
2022-12-04T11:35:42.868Z,23.75
2022-12-04T11:37:22.264Z,20.45
2022-12-04T11:39:06.685Z,18.80
2022-12-04T11:40:40.447Z,16.23
2022-12-04T11:42:19.707Z,15.45
2022-12-04T11:43:56.684Z,18.73
2022-12-04T11:45:34.036Z,19.38
2022-12-04T11:47:19.842Z,20.92
2022-12-04T11:48:54.572Z,18.13
2022-12-04T11:50:49.760Z,17.00
2022-12-04T11:52:31.875Z,28.02
2022-12-04T11:54:14.430Z,23.33
2022-12-04T11:56:00.758Z,26.75
2022-12-04T11:57:43.882Z,24.92
2022-12-04T11:59:38.295Z,27.52
2022-12-04T12:01:26.550Z,21.85
2022-12-04T12:03:13.524Z,32.85
2022-12-04T12:05:02.563Z,18.48
2022-12-04T12:06:38.840Z,12.90
2022-12-04T12:08:24.980Z,17.95
2022-12-04T12:10:05.636Z,14.55
2022-12-04T12:11:46.056Z,18.27
2022-12-04T12:13:31.501Z,38.25
2022-12-04T12:15:17.722Z,34.70
2022-12-04T12:16:59.436Z,28.73
2022-12-04T12:18:47.559Z,15.23
2022-12-04T12:20:25.513Z,15.88
2022-12-04T12:22:08.019Z,33.35
2022-12-04T12:23:52.139Z,52.30
2022-12-04T12:25:32.703Z,45.15
2022-12-04T12:27:27.184Z,31.83
2022-12-04T12:29:17.383Z,13.50
2022-12-04T12:31:06.562Z,15.60
2022-12-04T12:32:56.073Z,18.98
2022-12-04T12:34:38.848Z,17.42
2022-12-04T12:36:22.005Z,16.80
2022-12-04T12:38:02.785Z,22.95
2022-12-04T12:39:41.316Z,22.92
2022-12-04T12:41:17.869Z,24.45
2022-12-04T12:44:59.102Z,26.67
2022-12-04T12:46:36.217Z,32.75
2022-12-04T12:48:17.588Z,29.58
2022-12-04T12:49:59.743Z,28.50
2022-12-04T12:51:38.431Z,25.63
2022-12-04T12:53:16.327Z,31.05
2022-12-04T12:54:57.415Z,34.72
2022-12-04T12:56:40.505Z,36.45
2022-12-04T12:58:23.411Z,41.70
2022-12-04T13:00:03.966Z,28.70
2022-12-04T13:01:46.365Z,23.55
2022-12-04T13:03:29.453Z,21.13
2022-12-04T13:05:07.190Z,19.45
2022-12-04T13:06:43.136Z,30.90
2022-12-04T13:08:24.285Z,22.75
2022-12-04T13:10:04.562Z,21.70
2022-12-04T13:11:40.373Z,24.52
2022-12-04T13:13:26.105Z,32.10
2022-12-04T13:14:59.318Z,32.78
2022-12-04T13:16:37.601Z,30.10
2022-12-04T13:18:21.463Z,34.03
2022-12-04T13:19:58.170Z,44.38
2022-12-04T13:21:36.573Z,88.55
2022-12-04T13:23:23.855Z,53.72
2022-12-04T13:25:19.720Z,44.10
2022-12-04T13:26:58.419Z,55.50
2022-12-04T13:28:43.450Z,58.60
2022-12-04T13:30:20.360Z,42.42
2022-12-04T13:32:04.409Z,47.80
2022-12-04T13:34:09.080Z,39.72
2022-12-04T13:36:00.322Z,32.15
2022-12-04T13:37:49.716Z,35.70
2022-12-04T13:39:42.657Z,56.58
2022-12-04T13:41:19.671Z,36.33
2022-12-04T13:42:52.948Z,28.85
2022-12-04T13:44:27.787Z,25.80
2022-12-04T13:46:03.591Z,33.22
2022-12-04T13:47:38.307Z,34.20
2022-12-04T13:49:26.407Z,36.60
2022-12-04T13:51:09.238Z,62.08
2022-12-04T13:52:44.003Z,48.50
2022-12-04T13:54:32.028Z,38.97
2022-12-04T13:56:10.301Z,33.55
2022-12-04T13:57:55.499Z,38.47
2022-12-04T13:59:38.577Z,35.97
2022-12-04T14:01:27.284Z,32.78
2022-12-04T14:03:07.983Z,30.80
2022-12-04T14:04:47.161Z,36.33
2022-12-04T14:06:25.609Z,46.72
2022-12-04T14:08:08.195Z,44.30
2022-12-04T14:09:44.141Z,54.42
2022-12-04T14:11:20.313Z,58.80
2022-12-04T14:13:00.804Z,55.75
2022-12-04T14:14:41.024Z,55.72
2022-12-04T14:16:24.450Z,43.75
2022-12-04T14:18:02.401Z,37.40
2022-12-04T14:19:39.714Z,34.38
2022-12-04T14:21:13.098Z,39.35
2022-12-04T14:22:47.348Z,41.13
2022-12-04T14:24:32.067Z,50.60
2022-12-04T14:26:05.827Z,41.15
2022-12-04T14:27:48.443Z,62.53
2022-12-04T14:29:37.562Z,40.63
2022-12-04T14:31:32.377Z,33.10
2022-12-04T14:33:11.368Z,30.05
2022-12-04T14:34:46.448Z,28.90
2022-12-04T14:36:28.330Z,29.63
2022-12-04T14:38:05.397Z,25.27
2022-12-04T14:39:50.509Z,24.33
2022-12-04T14:41:28.395Z,25.38
2022-12-04T14:43:01.914Z,30.50
2022-12-04T14:44:36.571Z,21.95
2022-12-04T14:46:17.832Z,27.20
2022-12-04T14:48:06.943Z,20.35
2022-12-04T14:49:51.856Z,37.03
2022-12-04T14:51:34.130Z,39.92
2022-12-04T14:53:18.902Z,37.58
2022-12-04T14:55:06.814Z,40.78
2022-12-04T14:56:52.399Z,57.28
2022-12-04T14:58:34.424Z,52.30
2022-12-04T15:00:16.414Z,40.78
2022-12-04T15:01:51.848Z,50.53
2022-12-04T15:03:25.600Z,35.28
2022-12-04T15:05:00.049Z,39.67
2022-12-04T15:06:34.999Z,25.55
2022-12-04T15:08:09.253Z,28.70
2022-12-04T15:10:11.153Z,58.65
2022-12-04T15:12:05.528Z,40.95
2022-12-04T15:13:40.074Z,48.25
2022-12-04T15:15:19.676Z,22.00
2022-12-04T15:17:03.662Z,35.03
2022-12-04T15:18:39.657Z,47.42
2022-12-04T15:20:18.707Z,53.17
2022-12-04T15:21:53.411Z,43.53
2022-12-04T15:23:31.494Z,221.52
2022-12-04T15:25:08.142Z,43.70
2022-12-04T15:26:41.818Z,42.63
2022-12-04T15:28:19.925Z,53.33
2022-12-04T15:29:58.417Z,50.80
2022-12-04T15:31:34.478Z,51.63
2022-12-04T15:33:08.779Z,52.80
2022-12-04T15:34:44.458Z,45.70
2022-12-04T15:36:23.430Z,46.80
2022-12-04T15:37:57.509Z,42.03
2022-12-04T15:39:33.714Z,45.05
2022-12-04T15:41:09.609Z,42.72
2022-12-04T15:42:43.132Z,55.35
2022-12-04T15:44:25.078Z,58.40
2022-12-04T15:45:58.935Z,53.88
2022-12-04T15:47:34.828Z,62.47
2022-12-04T15:49:17.465Z,47.78
2022-12-04T15:50:57.758Z,67.80
2022-12-04T15:52:31.076Z,60.20
2022-12-04T15:54:05.459Z,72.78
2022-12-04T15:55:41.410Z,74.13
2022-12-04T15:57:23.718Z,68.75
2022-12-04T15:59:00.989Z,84.93
2022-12-04T16:00:38.834Z,116.15
2022-12-04T16:02:26.250Z,82.78
2022-12-04T16:03:59.661Z,110.00
2022-12-04T16:05:37.466Z,101.80
2022-12-04T16:07:22.706Z,112.70
2022-12-04T16:08:57.489Z,100.38
2022-12-04T16:10:33.708Z,120.88
2022-12-04T16:12:20.358Z,74.20
2022-12-04T16:14:15.854Z,101.95
2022-12-04T16:15:49.163Z,101.13
2022-12-04T16:17:25.379Z,102.22
2022-12-04T16:18:58.999Z,56.35
2022-12-04T16:20:32.586Z,88.50
2022-12-04T16:22:12.906Z,83.07
2022-12-04T16:23:47.189Z,75.13
2022-12-04T16:25:20.651Z,93.15
2022-12-04T16:26:56.143Z,80.20
2022-12-04T16:28:30.655Z,74.43
2022-12-04T16:30:04.649Z,80.75
2022-12-04T16:31:39.129Z,103.55
2022-12-04T16:33:16.192Z,99.40
2022-12-04T16:34:49.832Z,105.88
2022-12-04T16:36:23.467Z,96.53
2022-12-04T16:37:56.963Z,96.65
2022-12-04T16:39:30.730Z,96.18
2022-12-04T16:41:05.964Z,77.18
2022-12-04T16:42:41.594Z,74.03
2022-12-04T16:44:17.887Z,86.57
2022-12-04T16:45:55.409Z,72.93
2022-12-04T16:47:29.079Z,58.60
2022-12-04T16:49:07.401Z,66.63
2022-12-04T16:50:41.396Z,67.07
2022-12-04T16:52:15.140Z,76.28
2022-12-04T16:53:48.690Z,83.50
2022-12-04T16:55:27.238Z,76.57
2022-12-04T16:57:00.581Z,71.68
2022-12-04T16:58:33.995Z,61.28
2022-12-04T17:00:14.079Z,70.25
2022-12-04T17:01:50.438Z,61.67
2022-12-04T17:03:28.028Z,65.18
2022-12-04T17:05:02.236Z,68.43
2022-12-04T17:06:35.599Z,63.22
2022-12-04T17:08:09.118Z,67.82
2022-12-04T17:09:47.115Z,72.45
2022-12-04T17:11:20.662Z,78.82
2022-12-04T17:12:54.719Z,70.63
2022-12-04T17:14:30.061Z,74.05
2022-12-04T17:16:07.855Z,65.35
2022-12-04T17:17:41.942Z,77.93
2022-12-04T17:19:15.275Z,87.68
2022-12-04T17:20:48.624Z,84.32
2022-12-04T17:22:26.372Z,90.72
2022-12-04T17:24:00.181Z,96.50
2022-12-04T17:25:34.794Z,83.38
2022-12-04T17:27:11.872Z,91.90
2022-12-04T17:28:45.416Z,76.32
2022-12-04T17:30:19.031Z,114.60
2022-12-04T17:31:54.970Z,110.22
2022-12-04T17:33:28.702Z,122.82
2022-12-04T17:35:03.038Z,92.22
2022-12-04T17:36:36.968Z,97.60
2022-12-04T17:38:10.195Z,92.90
2022-12-04T17:39:43.512Z,92.45
2022-12-04T17:41:17.031Z,94.95
2022-12-04T17:42:50.531Z,84.55
2022-12-04T17:44:23.948Z,80.90
2022-12-04T17:45:57.637Z,62.55
2022-12-04T17:47:32.314Z,72.93
2022-12-04T17:49:07.466Z,61.38
2022-12-04T17:50:41.320Z,53.75
2022-12-04T17:52:15.104Z,59.83
2022-12-04T17:53:49.443Z,87.93
2022-12-04T17:55:23.444Z,64.68
2022-12-04T17:56:58.285Z,62.20
2022-12-04T17:58:33.228Z,85.95
2022-12-04T18:00:09.320Z,92.25
2022-12-04T18:01:45.554Z,68.80
2022-12-04T18:03:20.260Z,79.22
2022-12-04T18:04:55.509Z,73.82
2022-12-04T18:06:31.335Z,55.65
2022-12-04T18:08:06.684Z,60.72
2022-12-04T18:09:42.897Z,62.90
2022-12-04T18:11:17.571Z,62.10
2022-12-04T18:12:50.767Z,48.65
2022-12-04T18:14:26.166Z,45.40
2022-12-04T18:16:04.398Z,57.25
2022-12-04T18:17:39.901Z,66.70
2022-12-04T18:19:15.898Z,65.93
2022-12-04T18:20:52.919Z,49.97
2022-12-04T18:22:26.090Z,55.95
2022-12-04T18:24:01.163Z,53.33
2022-12-04T18:25:34.998Z,74.03
2022-12-04T18:27:09.461Z,58.78
2022-12-04T18:28:43.796Z,51.13
2022-12-04T18:30:17.926Z,96.05
2022-12-04T18:31:52.352Z,73.10
2022-12-04T18:33:26.071Z,62.80
2022-12-04T18:35:00.934Z,67.40
2022-12-04T18:36:38.781Z,59.42
2022-12-04T18:38:12.239Z,54.58
2022-12-04T18:39:47.056Z,66.20
2022-12-04T18:41:20.621Z,58.30
2022-12-04T18:42:54.200Z,69.35
2022-12-04T18:44:28.125Z,70.45
2022-12-04T18:46:07.680Z,63.92
2022-12-04T18:47:41.884Z,69.47
2022-12-04T18:49:15.303Z,72.97
2022-12-04T18:50:50.153Z,65.60
2022-12-04T18:52:24.429Z,68.60
2022-12-04T18:53:59.816Z,53.50
2022-12-04T18:55:36.631Z,92.30
2022-12-04T18:57:10.473Z,68.13
2022-12-04T18:58:48.180Z,84.43
2022-12-04T19:00:21.661Z,72.03
2022-12-04T19:01:55.815Z,62.13
2022-12-04T19:03:29.595Z,72.47
2022-12-04T19:05:03.479Z,68.47
2022-12-04T19:06:41.493Z,55.15
2022-12-04T19:08:15.065Z,65.07
2022-12-04T19:11:45.314Z,51.88
2022-12-04T19:13:18.676Z,49.05
2022-12-04T19:14:53.399Z,66.55
2022-12-04T19:16:28.018Z,75.57
2022-12-04T19:18:01.995Z,79.63
2022-12-04T19:19:35.470Z,33.38
2022-12-04T19:21:09.963Z,53.10
2022-12-04T19:22:45.709Z,40.35
2022-12-04T19:24:19.170Z,67.65
2022-12-04T19:25:57.579Z,93.68
2022-12-04T19:27:31.653Z,109.82
2022-12-04T19:29:05.866Z,105.82
2022-12-04T19:30:39.180Z,128.80
2022-12-04T19:32:13.458Z,110.65
2022-12-04T19:33:53.721Z,112.03
2022-12-04T19:35:32.597Z,165.30
2022-12-04T19:37:07.312Z,115.07
2022-12-04T19:38:42.822Z,124.63
2022-12-04T19:40:16.419Z,136.88
2022-12-04T19:41:49.580Z,102.05
2022-12-04T19:43:23.190Z,130.90
2022-12-04T19:44:56.583Z,135.80
2022-12-04T19:46:33.011Z,128.95
2022-12-04T19:48:07.037Z,98.65
2022-12-04T19:49:40.531Z,97.53
2022-12-04T19:51:16.014Z,85.35
2022-12-04T19:52:49.612Z,101.70
2022-12-04T19:54:25.726Z,101.07
2022-12-04T19:56:03.417Z,124.32
2022-12-04T19:57:37.695Z,94.07
2022-12-04T19:59:11.732Z,102.35
2022-12-04T20:00:44.959Z,108.53
2022-12-04T20:02:20.061Z,107.18
2022-12-04T20:03:54.119Z,101.32
2022-12-04T20:05:27.985Z,99.35
2022-12-04T20:07:01.204Z,100.43
2022-12-04T20:08:35.674Z,81.53
2022-12-04T20:10:11.898Z,106.68
2022-12-04T20:11:45.382Z,93.18
2022-12-04T20:13:18.622Z,118.20
2022-12-04T20:14:51.926Z,76.15
2022-12-04T20:16:27.855Z,87.25
2022-12-04T20:18:01.415Z,129.43
2022-12-04T20:19:35.358Z,120.55
2022-12-04T20:21:12.038Z,170.18
2022-12-04T20:22:45.577Z,164.60
2022-12-04T20:24:19.375Z,175.63
2022-12-04T20:25:54.156Z,97.22
2022-12-04T20:27:27.984Z,114.28
2022-12-04T20:29:02.501Z,88.07
2022-12-04T20:30:36.947Z,140.23
2022-12-04T20:32:11.202Z,82.75
2022-12-04T20:33:44.936Z,116.30
2022-12-04T20:35:18.559Z,66.00
2022-12-04T20:36:52.036Z,73.15
2022-12-04T20:38:25.688Z,74.68
2022-12-04T20:40:01.725Z,77.65
2022-12-04T20:41:38.449Z,82.70
2022-12-04T20:43:12.732Z,89.93
2022-12-04T20:44:45.900Z,145.48
2022-12-04T20:46:21.875Z,166.73
2022-12-04T20:47:56.746Z,167.02
2022-12-04T20:49:30.127Z,150.73
2022-12-04T20:51:03.573Z,103.65
2022-12-04T20:52:37.641Z,82.22
2022-12-04T20:54:15.453Z,66.30
2022-12-04T20:55:57.224Z,84.57